createdAt,value
2018-11-11T00:01:03.465Z,11.80
2018-11-11T00:03:33.194Z,11.80
2018-11-11T00:06:02.908Z,11.90
2018-11-11T00:08:32.644Z,12.00
2018-11-11T00:11:02.480Z,12.10
2018-11-11T00:13:32.149Z,12.20
2018-11-11T00:16:01.912Z,12.10
2018-11-11T00:18:31.741Z,12.10
2018-11-11T00:21:01.445Z,12.10
2018-11-11T00:23:31.090Z,12.00
2018-11-11T00:26:00.675Z,12.00
2018-11-11T00:28:30.495Z,12.00
2018-11-11T00:31:00.226Z,12.00
2018-11-11T00:33:30.002Z,12.00
2018-11-11T00:35:59.632Z,12.10
2018-11-11T00:38:29.361Z,12.10
2018-11-11T00:40:59.112Z,12.20
2018-11-11T00:43:28.879Z,12.20
2018-11-11T00:45:58.654Z,12.00
2018-11-11T00:48:28.334Z,12.00
2018-11-11T00:53:36.969Z,12.00
2018-11-11T00:56:06.750Z,11.90
2018-11-11T00:58:36.413Z,11.90
2018-11-11T01:01:06.084Z,12.00
2018-11-11T01:03:35.878Z,11.90
2018-11-11T01:06:05.677Z,11.90
2018-11-11T01:08:35.401Z,12.00
2018-11-11T01:11:05.196Z,12.00
2018-11-11T01:13:34.870Z,12.10
2018-11-11T01:16:04.726Z,12.10
2018-11-11T01:18:40.152Z,12.00
2018-11-11T01:21:14.660Z,12.00
2018-11-11T01:23:48.465Z,12.00
2018-11-11T01:26:18.227Z,12.00
2018-11-11T01:28:47.912Z,12.10
2018-11-11T01:31:17.592Z,12.10
2018-11-11T01:33:47.275Z,12.10
2018-11-11T01:36:16.911Z,12.20
2018-11-11T01:38:46.646Z,12.10
2018-11-11T01:41:16.468Z,12.10
2018-11-11T01:43:46.148Z,12.10
2018-11-11T01:46:15.825Z,12.10
2018-11-11T01:48:45.668Z,12.20
2018-11-11T01:51:15.405Z,12.20
2018-11-11T01:53:45.221Z,12.20
2018-11-11T01:56:15.060Z,12.10
2018-11-11T01:58:44.903Z,12.00
2018-11-11T02:01:14.352Z,12.00
2018-11-11T02:03:44.134Z,12.00
2018-11-11T02:06:13.925Z,12.00
2018-11-11T02:08:43.764Z,12.10
2018-11-11T02:11:13.396Z,12.20
2018-11-11T02:13:43.308Z,12.20
2018-11-11T02:16:13.073Z,12.10
2018-11-11T02:18:42.809Z,12.10
2018-11-11T02:21:12.733Z,12.10
2018-11-11T02:23:42.654Z,12.10
2018-11-11T02:26:12.417Z,12.00
2018-11-11T02:28:42.100Z,12.00
2018-11-11T02:31:11.841Z,12.00
2018-11-11T02:33:41.367Z,11.90
2018-11-11T02:36:11.146Z,11.90
2018-11-11T02:38:40.869Z,11.90
2018-11-11T02:41:10.604Z,12.00
2018-11-11T02:43:40.285Z,12.00
2018-11-11T02:46:09.818Z,12.10
2018-11-11T02:48:39.559Z,12.10
2018-11-11T02:51:09.665Z,12.10
2018-11-11T02:53:39.740Z,12.10
2018-11-11T02:56:09.416Z,12.00
2018-11-11T02:58:39.145Z,12.00
2018-11-11T03:01:08.842Z,11.90
2018-11-11T03:03:38.728Z,11.90
2018-11-11T03:06:08.847Z,11.80
2018-11-11T03:08:38.578Z,11.80
2018-11-11T03:11:08.627Z,11.80
2018-11-11T03:13:38.394Z,11.80
2018-11-11T03:16:08.195Z,11.80
2018-11-11T03:18:37.944Z,11.80
2018-11-11T03:21:07.645Z,11.90
2018-11-11T03:23:37.446Z,11.90
2018-11-11T03:26:07.625Z,11.90
2018-11-11T03:28:37.162Z,11.90
2018-11-11T03:31:06.961Z,11.90
2018-11-11T03:33:36.859Z,11.80
2018-11-11T03:36:06.941Z,11.80
2018-11-11T03:38:36.560Z,11.80
2018-11-11T03:41:06.214Z,11.90
2018-11-11T03:43:36.000Z,11.90
2018-11-11T03:46:05.856Z,12.00
2018-11-11T03:48:35.628Z,11.90
2018-11-11T03:51:05.284Z,11.90
2018-11-11T03:53:35.073Z,12.00
2018-11-11T03:56:04.793Z,12.00
2018-11-11T03:58:34.576Z,11.90
2018-11-11T04:01:04.582Z,11.90
2018-11-11T04:03:34.243Z,11.90
2018-11-11T04:06:04.089Z,12.00
2018-11-11T04:08:33.680Z,12.00
2018-11-11T04:11:03.336Z,12.00
2018-11-11T04:13:33.033Z,12.00
2018-11-11T04:16:02.789Z,12.00
2018-11-11T04:18:32.567Z,12.00
2018-11-11T04:21:02.314Z,12.00
2018-11-11T04:23:31.996Z,12.00
2018-11-11T04:26:01.709Z,11.90
2018-11-11T04:28:31.476Z,11.90
2018-11-11T04:31:01.230Z,11.90
2018-11-11T04:33:30.924Z,11.90
2018-11-11T04:36:00.432Z,11.90
2018-11-11T04:38:30.064Z,11.80
2018-11-11T04:40:59.943Z,11.80
2018-11-11T04:43:29.589Z,11.80
2018-11-11T04:45:59.304Z,11.80
2018-11-11T04:48:28.887Z,11.80
2018-11-11T04:50:58.526Z,11.90
2018-11-11T04:53:28.300Z,11.80
2018-11-11T04:55:57.939Z,11.90
2018-11-11T04:58:27.711Z,11.90
2018-11-11T05:00:57.463Z,11.90
2018-11-11T05:03:27.073Z,11.90
2018-11-11T05:05:56.820Z,11.90
2018-11-11T05:08:26.595Z,11.90
2018-11-11T05:10:56.449Z,11.90
2018-11-11T05:13:26.080Z,12.00
2018-11-11T05:15:55.617Z,12.00
2018-11-11T05:18:25.264Z,12.00
2018-11-11T05:20:54.844Z,12.00
2018-11-11T05:23:24.509Z,11.90
2018-11-11T05:25:54.199Z,11.90
2018-11-11T05:28:23.751Z,12.00
2018-11-11T05:30:53.553Z,12.00
2018-11-11T05:33:23.221Z,12.00
2018-11-11T05:35:52.984Z,12.00
2018-11-11T05:38:22.573Z,12.00
2018-11-11T05:40:52.106Z,11.90
2018-11-11T05:43:21.922Z,11.90
2018-11-11T05:45:51.597Z,11.90
2018-11-11T05:48:21.384Z,11.90
2018-11-11T05:50:51.117Z,11.90
2018-11-11T05:53:21.100Z,12.00
2018-11-11T05:55:50.741Z,11.90
2018-11-11T05:58:20.434Z,11.90
2018-11-11T06:00:49.980Z,11.90
2018-11-11T06:03:19.781Z,12.10
2018-11-11T06:05:49.680Z,12.10
2018-11-11T06:08:19.300Z,12.00
2018-11-11T06:10:49.040Z,12.00
2018-11-11T06:13:18.681Z,12.10
2018-11-11T06:15:48.338Z,12.10
2018-11-11T06:18:18.306Z,12.10
2018-11-11T06:20:47.963Z,12.10
2018-11-11T06:23:17.636Z,12.10
2018-11-11T06:25:47.273Z,12.10
2018-11-11T06:28:16.942Z,12.10
2018-11-11T06:30:46.663Z,12.00
2018-11-11T06:33:16.312Z,12.00
2018-11-11T06:35:45.919Z,12.00
2018-11-11T06:38:15.825Z,12.00
2018-11-11T06:40:47.451Z,12.00
2018-11-11T06:43:20.290Z,12.10
2018-11-11T06:45:53.106Z,12.10
2018-11-11T06:48:22.841Z,12.10
2018-11-11T06:50:52.486Z,12.10
2018-11-11T06:53:22.252Z,12.10
2018-11-11T06:55:51.995Z,12.20
2018-11-11T06:58:21.739Z,12.10
2018-11-11T07:00:51.521Z,12.10
2018-11-11T07:04:02.082Z,12.20
2018-11-11T07:06:32.337Z,12.10
2018-11-11T07:09:02.124Z,12.00
2018-11-11T07:11:31.804Z,12.00
2018-11-11T07:14:08.301Z,12.10
2018-11-11T07:16:38.160Z,12.10
2018-11-11T07:19:08.033Z,12.10
2018-11-11T07:21:37.893Z,12.20
2018-11-11T07:24:07.672Z,12.20
2018-11-11T07:26:37.314Z,12.30
2018-11-11T07:29:07.688Z,12.30
2018-11-11T07:31:37.441Z,12.40
2018-11-11T07:34:07.210Z,12.40
2018-11-11T07:36:36.900Z,12.40
2018-11-11T07:39:10.315Z,12.40
2018-11-11T07:41:40.125Z,12.40
2018-11-11T07:44:10.041Z,12.40
2018-11-11T07:46:39.798Z,12.50
2018-11-11T07:49:09.557Z,12.60
2018-11-11T07:51:39.329Z,12.70
2018-11-11T07:54:09.085Z,12.60
2018-11-11T07:56:38.799Z,12.60
2018-11-11T07:59:08.704Z,12.60
2018-11-11T08:01:38.438Z,12.60
2018-11-11T08:04:08.384Z,12.60
2018-11-11T08:06:38.039Z,12.70
2018-11-11T08:09:08.571Z,12.70
2018-11-11T08:11:49.036Z,12.70
2018-11-11T08:14:18.801Z,12.70
2018-11-11T08:16:48.367Z,12.70
2018-11-11T08:19:18.034Z,12.70
2018-11-11T08:21:47.803Z,12.80
2018-11-11T08:24:18.024Z,12.80
2018-11-11T08:26:47.781Z,12.90
2018-11-11T08:29:17.501Z,12.80
2018-11-11T08:31:47.285Z,12.70
2018-11-11T08:34:17.096Z,12.70
2018-11-11T08:36:47.146Z,12.70
2018-11-11T08:39:17.437Z,12.70
2018-11-11T08:41:47.437Z,12.80
2018-11-11T08:44:17.078Z,13.00
2018-11-11T08:46:48.203Z,13.00
2018-11-11T08:49:17.936Z,13.10
2018-11-11T08:51:47.593Z,13.10
2018-11-11T08:54:17.363Z,13.20
2018-11-11T08:56:47.152Z,13.30
2018-11-11T08:59:16.898Z,13.30
2018-11-11T09:01:46.616Z,13.30
2018-11-11T09:04:17.955Z,13.20
2018-11-11T09:06:49.002Z,13.30
2018-11-11T09:09:18.797Z,13.40
2018-11-11T09:11:48.573Z,13.50
2018-11-11T09:14:18.139Z,13.50
2018-11-11T09:16:47.705Z,13.60
2018-11-11T09:19:17.408Z,13.60
2018-11-11T09:21:47.133Z,13.60
2018-11-11T09:24:16.726Z,13.70
2018-11-11T09:26:46.385Z,13.70
2018-11-11T09:29:16.219Z,13.80
2018-11-11T09:31:45.891Z,13.70
2018-11-11T09:34:15.653Z,13.70
2018-11-11T09:36:45.267Z,13.70
2018-11-11T09:39:15.276Z,13.60
2018-11-11T09:41:44.992Z,13.60
2018-11-11T09:44:14.668Z,13.50
2018-11-11T09:46:44.217Z,13.50
2018-11-11T09:49:14.173Z,13.80
2018-11-11T09:51:44.928Z,13.90
2018-11-11T09:54:14.897Z,13.90
2018-11-11T09:56:44.664Z,14.00
2018-11-11T09:59:14.353Z,14.10
2018-11-11T10:01:44.133Z,14.20
2018-11-11T10:04:18.580Z,14.30
2018-11-11T10:06:54.966Z,14.30
2018-11-11T10:09:36.872Z,14.30
2018-11-11T10:12:44.601Z,14.20
2018-11-11T10:15:49.785Z,14.30
2018-11-11T10:18:27.890Z,14.50
2018-11-11T10:21:07.573Z,14.40
2018-11-11T10:23:45.641Z,14.50
2018-11-11T10:26:36.810Z,14.50
2018-11-11T10:29:09.689Z,14.50
2018-11-11T10:32:15.733Z,14.50
2018-11-11T10:34:49.299Z,14.50
2018-11-11T10:37:24.098Z,14.40
2018-11-11T10:40:02.182Z,14.50
2018-11-11T10:42:36.948Z,14.60
2018-11-11T10:45:17.016Z,14.70
2018-11-11T10:47:51.635Z,14.70
2018-11-11T10:50:24.691Z,14.70
2018-11-11T10:52:54.380Z,14.80
2018-11-11T10:55:24.155Z,14.90
2018-11-11T10:57:54.212Z,15.00
2018-11-11T11:00:32.888Z,15.00
2018-11-11T11:03:02.735Z,15.10
2018-11-11T11:05:32.516Z,15.20
2018-11-11T11:08:02.309Z,15.30
2018-11-11T11:10:32.089Z,15.40
2018-11-11T11:13:01.747Z,15.40
2018-11-11T11:15:31.621Z,15.50
2018-11-11T11:18:01.367Z,15.50
2018-11-11T11:20:31.265Z,15.60
2018-11-11T11:23:00.947Z,15.60
2018-11-11T11:25:30.726Z,15.60
2018-11-11T11:28:00.470Z,15.50
2018-11-11T11:30:30.225Z,15.50
2018-11-11T11:32:59.989Z,15.50
2018-11-11T11:35:29.726Z,15.60
2018-11-11T11:37:59.467Z,15.50
2018-11-11T11:40:29.166Z,15.50
2018-11-11T11:42:58.884Z,15.40
2018-11-11T11:45:28.385Z,15.40
2018-11-11T11:47:58.081Z,15.40
2018-11-11T11:50:27.947Z,15.20
2018-11-11T11:52:57.855Z,15.10
2018-11-11T11:55:27.328Z,15.00
2018-11-11T11:58:12.673Z,15.00
2018-11-11T12:00:42.521Z,15.00
2018-11-11T12:03:12.116Z,15.00
2018-11-11T12:05:41.988Z,15.10
2018-11-11T12:08:12.232Z,15.10
2018-11-11T12:10:41.967Z,15.00
2018-11-11T12:13:12.445Z,15.00
2018-11-11T12:15:42.589Z,14.90
2018-11-11T12:18:12.856Z,15.00
2018-11-11T12:20:42.895Z,14.90
2018-11-11T12:23:12.961Z,14.90
2018-11-11T12:25:42.625Z,14.90
2018-11-11T12:28:12.306Z,14.90
2018-11-11T12:30:42.294Z,14.90
2018-11-11T12:33:12.015Z,14.90
2018-11-11T12:35:43.205Z,14.80
2018-11-11T12:38:13.272Z,14.70
2018-11-11T12:40:42.640Z,14.50
2018-11-11T12:43:12.473Z,14.30
2018-11-11T12:45:41.908Z,14.10
2018-11-11T12:48:11.325Z,14.00
2018-11-11T12:50:40.728Z,13.90
2018-11-11T12:53:10.123Z,13.70
2018-11-11T12:55:39.568Z,13.70
2018-11-11T12:58:09.158Z,13.80
2018-11-11T13:00:38.522Z,13.90
2018-11-11T13:03:08.272Z,13.90
2018-11-11T13:05:37.657Z,13.80
2018-11-11T13:08:07.207Z,13.90
2018-11-11T13:10:36.596Z,13.90
2018-11-11T13:13:06.372Z,14.00
2018-11-11T13:15:36.221Z,14.00
2018-11-11T13:18:05.863Z,14.00
2018-11-11T13:20:35.718Z,14.00
2018-11-11T13:23:05.611Z,14.00
2018-11-11T13:25:35.310Z,14.10
2018-11-11T13:28:05.185Z,14.10
2018-11-11T13:30:34.880Z,14.10
2018-11-11T13:33:04.820Z,14.10
2018-11-11T13:35:34.563Z,14.00
2018-11-11T13:38:04.341Z,14.00
2018-11-11T13:40:33.954Z,13.90
2018-11-11T13:43:03.799Z,13.80
2018-11-11T13:45:33.660Z,13.80
2018-11-11T13:48:03.301Z,13.80
2018-11-11T13:50:32.976Z,14.00
2018-11-11T13:53:02.517Z,14.00
2018-11-11T13:55:32.277Z,14.00
2018-11-11T13:58:02.109Z,14.00
2018-11-11T14:00:31.500Z,13.90
2018-11-11T14:03:00.901Z,13.70
2018-11-11T14:05:30.304Z,13.60
2018-11-11T14:07:59.795Z,13.60
2018-11-11T14:12:57.999Z,13.50
2018-11-11T14:15:27.372Z,13.30
2018-11-11T14:17:57.245Z,13.40
2018-11-11T14:20:26.957Z,13.40
2018-11-11T14:22:56.905Z,13.30
2018-11-11T14:25:28.613Z,13.30
2018-11-11T14:27:57.981Z,13.30
2018-11-11T14:30:28.260Z,13.20
2018-11-11T14:32:58.619Z,13.10
2018-11-11T14:35:28.025Z,13.10
2018-11-11T14:37:57.458Z,13.10
2018-11-11T14:40:28.961Z,13.10
2018-11-11T14:42:58.495Z,13.10
2018-11-11T14:45:28.112Z,13.20
2018-11-11T14:47:58.252Z,13.20
2018-11-11T14:50:27.693Z,13.10
2018-11-11T14:52:57.127Z,13.10
2018-11-11T14:55:27.830Z,13.20
2018-11-11T14:57:57.738Z,13.30
2018-11-11T15:00:28.565Z,13.40
2018-11-11T15:03:04.505Z,13.40
2018-11-11T15:05:34.126Z,13.40
2018-11-11T15:08:03.762Z,13.30
2018-11-11T15:10:33.169Z,13.40
2018-11-11T15:13:03.039Z,13.40
2018-11-11T15:15:32.864Z,13.50
2018-11-11T15:18:02.669Z,13.50
2018-11-11T15:20:32.931Z,13.50
2018-11-11T15:23:02.316Z,13.40
2018-11-11T15:25:32.165Z,13.40
2018-11-11T15:28:01.482Z,13.30
2018-11-11T15:30:34.043Z,13.30
2018-11-11T15:33:03.984Z,13.20
2018-11-11T15:35:33.452Z,13.20
2018-11-11T15:38:02.916Z,13.10
2018-11-11T15:40:33.572Z,13.10
2018-11-11T15:43:03.141Z,13.20
2018-11-11T15:45:33.647Z,13.10
2018-11-11T15:48:03.409Z,13.20
2018-11-11T15:50:33.852Z,13.10
2018-11-11T15:53:04.443Z,13.00
2018-11-11T15:55:35.605Z,13.10
2018-11-11T15:58:05.017Z,13.10
2018-11-11T16:00:38.155Z,13.10
2018-11-11T16:03:07.885Z,13.10
2018-11-11T16:05:37.674Z,13.10
2018-11-11T16:08:07.417Z,13.10
2018-11-11T16:10:36.901Z,13.00
2018-11-11T16:13:06.778Z,13.10
2018-11-11T16:15:38.393Z,13.00
2018-11-11T16:18:09.525Z,13.00
2018-11-11T16:20:39.428Z,12.90
2018-11-11T16:23:09.630Z,12.80
2018-11-11T16:25:39.334Z,12.90
2018-11-11T16:28:09.232Z,12.90
2018-11-11T16:30:39.451Z,12.90
2018-11-11T16:33:09.981Z,12.90
2018-11-11T16:35:39.589Z,13.00
2018-11-11T16:38:09.400Z,13.00
2018-11-11T16:40:39.210Z,13.00
2018-11-11T16:43:08.715Z,13.00
2018-11-11T16:45:38.543Z,13.10
2018-11-11T16:48:08.173Z,13.10
2018-11-11T16:50:38.101Z,13.10
2018-11-11T16:53:09.001Z,13.10
2018-11-11T16:55:38.899Z,13.00
2018-11-11T16:58:08.292Z,13.00
2018-11-11T17:00:38.393Z,13.00
2018-11-11T17:03:08.829Z,13.10
2018-11-11T17:05:38.763Z,13.00
2018-11-11T17:08:08.194Z,13.00
2018-11-11T17:10:38.335Z,13.00
2018-11-11T17:13:11.961Z,12.90
2018-11-11T17:15:41.356Z,12.80
2018-11-11T17:18:11.185Z,12.80
2018-11-11T17:20:40.981Z,12.80
2018-11-11T17:23:10.706Z,12.70
2018-11-11T17:25:41.231Z,12.90
2018-11-11T17:28:14.133Z,13.10
2018-11-11T17:30:47.832Z,13.00
2018-11-11T17:33:22.431Z,12.90
2018-11-11T17:35:57.636Z,12.70
2018-11-11T17:38:31.220Z,12.50
2018-11-11T17:41:02.089Z,12.30
2018-11-11T17:43:34.841Z,12.30
2018-11-11T17:46:07.576Z,12.20
2018-11-11T17:48:39.578Z,12.10
2018-11-11T17:51:12.662Z,12.00
2018-11-11T17:53:45.793Z,11.90
2018-11-11T17:56:20.131Z,11.90
2018-11-11T17:58:53.849Z,11.90
2018-11-11T18:01:25.546Z,11.80
2018-11-11T18:03:59.335Z,11.80
2018-11-11T18:26:49.449Z,11.70
2018-11-11T18:29:20.372Z,11.30
2018-11-11T18:31:55.254Z,11.20
2018-11-11T18:34:28.454Z,11.20
2018-11-11T18:37:01.749Z,11.10
2018-11-11T18:39:36.564Z,11.20
2018-11-11T18:42:08.655Z,11.20
2018-11-11T18:44:43.099Z,11.20
2018-11-11T18:47:15.772Z,11.20
2018-11-11T18:49:48.601Z,11.20
2018-11-11T18:52:22.082Z,11.20
2018-11-11T18:54:53.219Z,11.20
2018-11-11T18:57:27.367Z,11.20
2018-11-11T18:59:59.970Z,11.20
2018-11-11T19:02:30.862Z,11.10
2018-11-11T19:05:02.998Z,11.00
2018-11-11T19:07:37.559Z,10.80
2018-11-11T19:13:01.084Z,10.70
2018-11-11T19:15:35.786Z,10.70
2018-11-11T19:48:32.826Z,10.60
2018-11-11T19:51:06.090Z,10.40
2018-11-11T19:53:39.453Z,10.30
2018-11-11T19:56:12.069Z,10.30
2018-11-11T19:58:44.000Z,10.30
2018-11-11T20:01:17.746Z,10.30
2018-11-11T20:03:56.745Z,10.20
2018-11-11T20:06:30.366Z,10.20
2018-11-11T20:09:04.323Z,10.20
2018-11-11T20:11:38.717Z,10.10
2018-11-11T20:14:11.597Z,10.20
2018-11-11T20:16:46.940Z,10.30
2018-11-11T20:19:17.228Z,10.40
2018-11-11T20:21:58.604Z,10.40
2018-11-11T20:24:28.600Z,10.40
2018-11-11T20:27:03.870Z,10.40
2018-11-11T20:29:36.749Z,10.40
2018-11-11T20:32:11.295Z,10.40
2018-11-11T20:34:45.810Z,10.40
2018-11-11T20:37:17.998Z,10.40
2018-11-11T20:39:55.189Z,10.30
2018-11-11T20:42:30.369Z,10.30
2018-11-11T20:45:04.269Z,10.30
2018-11-11T20:47:37.247Z,10.20
2018-11-11T20:50:12.179Z,10.20
2018-11-11T20:52:55.841Z,10.30
2018-11-11T20:55:31.914Z,10.40
2018-11-11T20:58:06.435Z,10.40
2018-11-11T21:00:41.124Z,10.30
2018-11-11T21:03:18.093Z,10.30
2018-11-11T21:05:51.997Z,10.30
2018-11-11T21:08:21.900Z,10.20
2018-11-11T21:10:51.645Z,10.20
2018-11-11T21:13:21.470Z,10.20
2018-11-11T21:15:51.102Z,10.10
2018-11-11T21:18:20.921Z,10.00
2018-11-11T21:20:50.562Z,10.00
2018-11-11T22:50:41.685Z,9.90
2018-11-11T22:53:11.268Z,11.00
2018-11-11T22:55:41.015Z,11.00
2018-11-11T22:58:10.683Z,11.00
2018-11-11T23:00:44.786Z,11.10
2018-11-11T23:03:14.604Z,11.10
2018-11-11T23:05:44.389Z,11.10
2018-11-11T23:08:14.073Z,11.00
2018-11-11T23:10:43.730Z,11.00
2018-11-11T23:13:13.492Z,11.00
2018-11-11T23:15:43.351Z,11.00
2018-11-11T23:18:13.116Z,11.00
2018-11-11T23:20:42.775Z,11.00
2018-11-11T23:23:12.621Z,11.00
2018-11-11T23:25:42.302Z,11.00
2018-11-11T23:28:12.092Z,11.00
2018-11-11T23:30:41.705Z,10.90
2018-11-11T23:33:11.603Z,10.90
2018-11-11T23:35:41.389Z,10.80
2018-11-11T23:38:11.158Z,10.90
2018-11-11T23:40:40.913Z,10.90
2018-11-11T23:43:10.585Z,10.90
2018-11-11T23:45:40.329Z,10.90
2018-11-11T23:48:10.111Z,10.90
2018-11-11T23:50:39.772Z,10.90
2018-11-11T23:53:09.456Z,10.80
2018-11-11T23:55:39.093Z,10.70
2018-11-11T23:58:08.771Z,10.70
